sensor_id;sensor_type;location;lat;lon;timestamp;pressure;altitude;pressure_sealevel;temperature;humidity
23473;BME280;11909;52.516;13.564;2023-03-12T00:01:14;100394.28;;;0.56;77.60
23473;BME280;11909;52.516;13.564;2023-03-12T00:03:42;100389.47;;;0.58;77.42
23473;BME280;11909;52.516;13.564;2023-03-12T00:06:10;100384.38;;;0.68;77.21
23473;BME280;11909;52.516;13.564;2023-03-12T00:08:39;100388.81;;;0.63;77.21
23473;BME280;11909;52.516;13.564;2023-03-12T00:11:09;100378.03;;;0.63;76.86
23473;BME280;11909;52.516;13.564;2023-03-12T00:13:37;100381.69;;;0.50;78.13
23473;BME280;11909;52.516;13.564;2023-03-12T00:16:07;100374.19;;;0.52;77.55
23473;BME280;11909;52.516;13.564;2023-03-12T00:18:35;100377.94;;;0.51;77.81
23473;BME280;11909;52.516;13.564;2023-03-12T00:21:04;100378.28;;;0.54;77.17
23473;BME280;11909;52.516;13.564;2023-03-12T00:23:32;100374.72;;;0.61;76.60
23473;BME280;11909;52.516;13.564;2023-03-12T00:26:04;100372.53;;;0.51;77.48
23473;BME280;11909;52.516;13.564;2023-03-12T00:28:32;100373.06;;;0.60;76.75
23473;BME280;11909;52.516;13.564;2023-03-12T00:31:01;100384.69;;;0.60;76.98
23473;BME280;11909;52.516;13.564;2023-03-12T00:33:29;100389.03;;;0.61;76.05
23473;BME280;11909;52.516;13.564;2023-03-12T00:35:59;100387.44;;;0.53;76.65
23473;BME280;11909;52.516;13.564;2023-03-12T00:38:27;100390.75;;;0.55;76.46
23473;BME280;11909;52.516;13.564;2023-03-12T00:40:55;100395.19;;;0.50;76.81
23473;BME280;11909;52.516;13.564;2023-03-12T00:43:24;100392.41;;;0.56;76.85
23473;BME280;11909;52.516;13.564;2023-03-12T00:45:52;100398.94;;;0.49;76.92
23473;BME280;11909;52.516;13.564;2023-03-12T00:48:19;100393.91;;;0.52;77.24
23473;BME280;11909;52.516;13.564;2023-03-12T00:50:47;100409.88;;;0.54;76.55
23473;BME280;11909;52.516;13.564;2023-03-12T00:53:15;100408.09;;;0.48;76.72
23473;BME280;11909;52.516;13.564;2023-03-12T00:55:43;100406.53;;;0.33;78.25
23473;BME280;11909;52.516;13.564;2023-03-12T00:58:10;100402.00;;;0.52;76.74
23473;BME280;11909;52.516;13.564;2023-03-12T01:00:39;100409.38;;;0.64;76.17
23473;BME280;11909;52.516;13.564;2023-03-12T01:03:07;100414.63;;;0.59;76.64
23473;BME280;11909;52.516;13.564;2023-03-12T01:05:35;100408.84;;;0.55;76.35
23473;BME280;11909;52.516;13.564;2023-03-12T01:08:06;100408.00;;;0.54;77.06
23473;BME280;11909;52.516;13.564;2023-03-12T01:10:35;100405.97;;;0.50;77.81
23473;BME280;11909;52.516;13.564;2023-03-12T01:13:03;100416.00;;;0.68;76.49
23473;BME280;11909;52.516;13.564;2023-03-12T01:15:30;100420.41;;;0.62;76.52
23473;BME280;11909;52.516;13.564;2023-03-12T01:17:59;100418.47;;;0.69;75.95
23473;BME280;11909;52.516;13.564;2023-03-12T01:20:27;100416.66;;;0.63;76.67
23473;BME280;11909;52.516;13.564;2023-03-12T01:22:55;100415.38;;;0.66;76.38
23473;BME280;11909;52.516;13.564;2023-03-12T01:25:23;100423.25;;;0.67;76.76
23473;BME280;11909;52.516;13.564;2023-03-12T01:27:51;100418.16;;;0.59;77.46
23473;BME280;11909;52.516;13.564;2023-03-12T01:30:18;100419.50;;;0.68;76.31
23473;BME280;11909;52.516;13.564;2023-03-12T01:32:46;100417.19;;;0.72;76.64
23473;BME280;11909;52.516;13.564;2023-03-12T01:35:15;100418.91;;;0.66;76.89
23473;BME280;11909;52.516;13.564;2023-03-12T01:37:43;100420.78;;;0.66;76.64
23473;BME280;11909;52.516;13.564;2023-03-12T01:40:13;100423.69;;;0.64;77.65
23473;BME280;11909;52.516;13.564;2023-03-12T01:42:41;100416.44;;;0.65;77.77
23473;BME280;11909;52.516;13.564;2023-03-12T01:48:09;100427.47;;;0.82;76.85
23473;BME280;11909;52.516;13.564;2023-03-12T01:50:38;100429.44;;;0.75;77.00
23473;BME280;11909;52.516;13.564;2023-03-12T01:53:06;100434.16;;;0.79;77.20
23473;BME280;11909;52.516;13.564;2023-03-12T01:55:34;100438.75;;;0.79;77.23
23473;BME280;11909;52.516;13.564;2023-03-12T01:58:02;100440.03;;;0.95;77.00
23473;BME280;11909;52.516;13.564;2023-03-12T02:00:29;100436.19;;;0.84;77.31
23473;BME280;11909;52.516;13.564;2023-03-12T02:03:00;100445.13;;;0.84;77.34
23473;BME280;11909;52.516;13.564;2023-03-12T02:05:31;100440.25;;;0.75;77.91
23473;BME280;11909;52.516;13.564;2023-03-12T02:08:01;100449.75;;;0.77;79.08
23473;BME280;11909;52.516;13.564;2023-03-12T02:10:29;100444.00;;;0.74;79.42
23473;BME280;11909;52.516;13.564;2023-03-12T02:12:56;100452.47;;;0.77;79.58
23473;BME280;11909;52.516;13.564;2023-03-12T02:15:24;100453.69;;;0.81;79.31
23473;BME280;11909;52.516;13.564;2023-03-12T02:17:53;100450.31;;;0.86;79.25
23473;BME280;11909;52.516;13.564;2023-03-12T02:20:24;100441.19;;;0.80;79.95
23473;BME280;11909;52.516;13.564;2023-03-12T02:22:59;100452.41;;;0.84;80.24
23473;BME280;11909;52.516;13.564;2023-03-12T02:25:35;100453.38;;;0.90;80.17
23473;BME280;11909;52.516;13.564;2023-03-12T02:28:06;100453.25;;;0.84;80.31
23473;BME280;11909;52.516;13.564;2023-03-12T02:30:35;100462.00;;;0.80;79.67
23473;BME280;11909;52.516;13.564;2023-03-12T02:33:06;100464.50;;;0.81;80.62
23473;BME280;11909;52.516;13.564;2023-03-12T02:35:35;100458.25;;;0.81;80.15
23473;BME280;11909;52.516;13.564;2023-03-12T02:38:03;100454.88;;;0.85;79.33
23473;BME280;11909;52.516;13.564;2023-03-12T02:40:52;100468.22;;;0.80;79.45
23473;BME280;11909;52.516;13.564;2023-03-12T02:43:22;100473.25;;;0.77;79.52
23473;BME280;11909;52.516;13.564;2023-03-12T02:45:50;100468.56;;;0.65;80.68
23473;BME280;11909;52.516;13.564;2023-03-12T02:48:18;100475.41;;;0.68;80.37
23473;BME280;11909;52.516;13.564;2023-03-12T02:50:45;100484.41;;;0.62;80.58
23473;BME280;11909;52.516;13.564;2023-03-12T02:53:13;100479.50;;;0.52;80.87
23473;BME280;11909;52.516;13.564;2023-03-12T02:55:41;100481.16;;;0.53;80.72
23473;BME280;11909;52.516;13.564;2023-03-12T02:58:10;100478.03;;;0.49;80.81
23473;BME280;11909;52.516;13.564;2023-03-12T03:00:38;100476.00;;;0.45;80.76
23473;BME280;11909;52.516;13.564;2023-03-12T03:03:05;100484.34;;;0.43;81.31
23473;BME280;11909;52.516;13.564;2023-03-12T03:05:33;100483.38;;;0.31;81.35
23473;BME280;11909;52.516;13.564;2023-03-12T03:08:03;100482.94;;;0.34;81.28
23473;BME280;11909;52.516;13.564;2023-03-12T03:10:31;100484.97;;;0.38;81.13
23473;BME280;11909;52.516;13.564;2023-03-12T03:12:59;100484.25;;;0.24;81.53
23473;BME280;11909;52.516;13.564;2023-03-12T03:15:28;100480.06;;;0.28;81.74
23473;BME280;11909;52.516;13.564;2023-03-12T03:17:56;100493.34;;;0.30;81.29
23473;BME280;11909;52.516;13.564;2023-03-12T03:20:24;100485.25;;;0.30;81.64
23473;BME280;11909;52.516;13.564;2023-03-12T03:22:52;100490.53;;;0.18;82.38
23473;BME280;11909;52.516;13.564;2023-03-12T03:25:20;100483.47;;;0.17;82.43
23473;BME280;11909;52.516;13.564;2023-03-12T03:27:49;100490.97;;;0.15;82.56
23473;BME280;11909;52.516;13.564;2023-03-12T03:30:16;100497.44;;;0.07;82.70
23473;BME280;11909;52.516;13.564;2023-03-12T03:32:46;100499.91;;;0.09;83.02
23473;BME280;11909;52.516;13.564;2023-03-12T03:35:14;100498.09;;;0.03;83.50
23473;BME280;11909;52.516;13.564;2023-03-12T03:37:42;100497.69;;;-0.01;83.35
23473;BME280;11909;52.516;13.564;2023-03-12T03:40:11;100493.75;;;-0.05;83.43
23473;BME280;11909;52.516;13.564;2023-03-12T03:42:39;100500.38;;;-0.01;83.69
23473;BME280;11909;52.516;13.564;2023-03-12T03:45:07;100502.47;;;-0.03;83.82
23473;BME280;11909;52.516;13.564;2023-03-12T03:47:35;100510.16;;;0.00;83.61
23473;BME280;11909;52.516;13.564;2023-03-12T03:50:06;100504.09;;;0.05;83.19
23473;BME280;11909;52.516;13.564;2023-03-12T03:52:33;100513.59;;;0.14;83.03
23473;BME280;11909;52.516;13.564;2023-03-12T03:55:01;100523.22;;;0.03;82.95
23473;BME280;11909;52.516;13.564;2023-03-12T03:57:29;100520.31;;;-0.02;83.22
23473;BME280;11909;52.516;13.564;2023-03-12T03:59:56;100521.41;;;-0.10;83.90
23473;BME280;11909;52.516;13.564;2023-03-12T04:02:29;100522.03;;;-0.08;84.13
23473;BME280;11909;52.516;13.564;2023-03-12T04:04:56;100530.69;;;0.01;83.67
23473;BME280;11909;52.516;13.564;2023-03-12T04:07:26;100535.44;;;0.06;83.21
23473;BME280;11909;52.516;13.564;2023-03-12T04:09:54;100537.78;;;-0.05;83.71
23473;BME280;11909;52.516;13.564;2023-03-12T04:12:23;100530.31;;;-0.09;84.29
23473;BME280;11909;52.516;13.564;2023-03-12T04:14:51;100528.06;;;-0.12;84.42
23473;BME280;11909;52.516;13.564;2023-03-12T04:17:19;100528.31;;;-0.21;85.21
23473;BME280;11909;52.516;13.564;2023-03-12T04:19:47;100530.41;;;-0.23;85.37
23473;BME280;11909;52.516;13.564;2023-03-12T04:22:14;100533.28;;;-0.18;84.82
23473;BME280;11909;52.516;13.564;2023-03-12T04:24:44;100535.09;;;-0.11;84.71
23473;BME280;11909;52.516;13.564;2023-03-12T04:27:11;100531.34;;;-0.10;84.90
23473;BME280;11909;52.516;13.564;2023-03-12T04:29:39;100534.94;;;-0.17;85.18
23473;BME280;11909;52.516;13.564;2023-03-12T04:32:07;100535.78;;;-0.23;85.27
23473;BME280;11909;52.516;13.564;2023-03-12T04:34:35;100527.06;;;-0.25;85.39
23473;BME280;11909;52.516;13.564;2023-03-12T04:37:02;100535.56;;;-0.28;85.87
23473;BME280;11909;52.516;13.564;2023-03-12T04:39:30;100539.31;;;-0.29;86.17
23473;BME280;11909;52.516;13.564;2023-03-12T04:41:59;100541.59;;;-0.26;85.69
23473;BME280;11909;52.516;13.564;2023-03-12T04:44:27;100543.22;;;-0.25;86.12
23473;BME280;11909;52.516;13.564;2023-03-12T04:46:54;100544.72;;;-0.29;86.16
23473;BME280;11909;52.516;13.564;2023-03-12T04:49:22;100551.56;;;-0.26;86.30
23473;BME280;11909;52.516;13.564;2023-03-12T04:51:50;100547.22;;;-0.34;86.64
23473;BME280;11909;52.516;13.564;2023-03-12T04:54:18;100554.91;;;-0.38;87.73
23473;BME280;11909;52.516;13.564;2023-03-12T04:56:46;100558.88;;;-0.40;87.59
23473;BME280;11909;52.516;13.564;2023-03-12T04:59:16;100554.69;;;-0.36;87.82
23473;BME280;11909;52.516;13.564;2023-03-12T05:01:43;100560.72;;;-0.34;88.09
23473;BME280;11909;52.516;13.564;2023-03-12T05:04:11;100560.53;;;-0.39;88.12
23473;BME280;11909;52.516;13.564;2023-03-12T05:06:39;100555.31;;;-0.41;88.57
23473;BME280;11909;52.516;13.564;2023-03-12T05:09:06;100559.50;;;-0.45;89.40
23473;BME280;11909;52.516;13.564;2023-03-12T05:11:34;100570.06;;;-0.44;89.32
23473;BME280;11909;52.516;13.564;2023-03-12T05:14:05;100562.19;;;-0.45;89.28
23473;BME280;11909;52.516;13.564;2023-03-12T05:16:34;100560.97;;;-0.49;90.11
23473;BME280;11909;52.516;13.564;2023-03-12T05:19:02;100567.81;;;-0.53;90.13
23473;BME280;11909;52.516;13.564;2023-03-12T05:21:30;100570.47;;;-0.47;90.11
23473;BME280;11909;52.516;13.564;2023-03-12T05:23:58;100567.38;;;-0.44;90.40
23473;BME280;11909;52.516;13.564;2023-03-12T05:26:27;100562.59;;;-0.41;90.31
23473;BME280;11909;52.516;13.564;2023-03-12T05:28:57;100568.22;;;-0.50;90.91
23473;BME280;11909;52.516;13.564;2023-03-12T05:31:25;100566.38;;;-0.56;91.44
23473;BME280;11909;52.516;13.564;2023-03-12T05:33:54;100560.53;;;-0.53;91.77
23473;BME280;11909;52.516;13.564;2023-03-12T05:36:22;100558.03;;;-0.48;91.09
23473;BME280;11909;52.516;13.564;2023-03-12T05:38:49;100562.63;;;-0.48;91.28
23473;BME280;11909;52.516;13.564;2023-03-12T05:41:20;100557.41;;;-0.50;91.25
23473;BME280;11909;52.516;13.564;2023-03-12T05:43:48;100555.16;;;-0.60;91.67
23473;BME280;11909;52.516;13.564;2023-03-12T05:46:16;100557.22;;;-0.48;91.07
23473;BME280;11909;52.516;13.564;2023-03-12T05:48:43;100562.84;;;-0.56;91.29
23473;BME280;11909;52.516;13.564;2023-03-12T05:51:13;100561.81;;;-0.55;91.86
23473;BME280;11909;52.516;13.564;2023-03-12T05:53:40;100555.56;;;-0.56;92.39
23473;BME280;11909;52.516;13.564;2023-03-12T05:56:11;100562.22;;;-0.59;92.43
23473;BME280;11909;52.516;13.564;2023-03-12T05:58:39;100560.13;;;-0.50;92.50
23473;BME280;11909;52.516;13.564;2023-03-12T06:01:11;100566.13;;;-0.48;92.30
23473;BME280;11909;52.516;13.564;2023-03-12T06:03:38;100564.69;;;-0.50;92.01
23473;BME280;11909;52.516;13.564;2023-03-12T06:06:08;100561.78;;;-0.49;92.66
23473;BME280;11909;52.516;13.564;2023-03-12T06:08:37;100567.22;;;-0.55;92.63
23473;BME280;11909;52.516;13.564;2023-03-12T06:11:05;100568.44;;;-0.58;92.87
23473;BME280;11909;52.516;13.564;2023-03-12T06:13:33;100568.44;;;-0.51;92.49
23473;BME280;11909;52.516;13.564;2023-03-12T06:16:01;100562.63;;;-0.55;92.54
23473;BME280;11909;52.516;13.564;2023-03-12T06:18:30;100565.09;;;-0.47;92.17
23473;BME280;11909;52.516;13.564;2023-03-12T06:21:09;100569.66;;;-0.40;91.98
23473;BME280;11909;52.516;13.564;2023-03-12T06:23:39;100568.00;;;-0.48;91.47
23473;BME280;11909;52.516;13.564;2023-03-12T06:26:07;100569.03;;;-0.42;91.35
23473;BME280;11909;52.516;13.564;2023-03-12T06:28:36;100578.13;;;-0.30;90.78
23473;BME280;11909;52.516;13.564;2023-03-12T06:31:04;100584.13;;;-0.35;90.67
23473;BME280;11909;52.516;13.564;2023-03-12T06:33:32;100576.09;;;-0.41;91.08
23473;BME280;11909;52.516;13.564;2023-03-12T06:36:02;100583.13;;;-0.34;90.61
23473;BME280;11909;52.516;13.564;2023-03-12T06:38:30;100578.78;;;-0.41;91.07
23473;BME280;11909;52.516;13.564;2023-03-12T06:41:01;100581.25;;;-0.33;90.76
23473;BME280;11909;52.516;13.564;2023-03-12T06:43:31;100583.91;;;-0.26;90.05
23473;BME280;11909;52.516;13.564;2023-03-12T06:45:59;100586.59;;;-0.20;90.20
23473;BME280;11909;52.516;13.564;2023-03-12T06:48:28;100589.50;;;-0.28;90.46
23473;BME280;11909;52.516;13.564;2023-03-12T06:50:56;100594.69;;;-0.20;90.38
23473;BME280;11909;52.516;13.564;2023-03-12T06:53:24;100603.78;;;-0.14;90.28
23473;BME280;11909;52.516;13.564;2023-03-12T06:55:52;100600.25;;;-0.08;90.25
23473;BME280;11909;52.516;13.564;2023-03-12T06:58:21;100594.00;;;-0.02;89.39
23473;BME280;11909;52.516;13.564;2023-03-12T07:00:49;100606.44;;;0.06;88.92
23473;BME280;11909;52.516;13.564;2023-03-12T07:03:17;100603.47;;;0.14;88.53
23473;BME280;11909;52.516;13.564;2023-03-12T07:05:46;100610.38;;;0.04;89.31
23473;BME280;11909;52.516;13.564;2023-03-12T07:08:15;100610.78;;;0.07;88.85
23473;BME280;11909;52.516;13.564;2023-03-12T07:10:44;100612.38;;;0.22;88.15
23473;BME280;11909;52.516;13.564;2023-03-12T07:13:12;100613.91;;;0.04;88.79
23473;BME280;11909;52.516;13.564;2023-03-12T07:15:41;100616.34;;;0.19;88.83
23473;BME280;11909;52.516;13.564;2023-03-12T07:18:10;100606.56;;;0.25;87.75
23473;BME280;11909;52.516;13.564;2023-03-12T07:20:39;100606.09;;;0.35;87.20
23473;BME280;11909;52.516;13.564;2023-03-12T07:23:08;100609.59;;;0.35;86.50
23473;BME280;11909;52.516;13.564;2023-03-12T07:25:36;100614.56;;;0.38;87.08
23473;BME280;11909;52.516;13.564;2023-03-12T07:28:04;100625.38;;;0.38;86.75
23473;BME280;11909;52.516;13.564;2023-03-12T07:30:32;100621.03;;;0.37;87.30
23473;BME280;11909;52.516;13.564;2023-03-12T07:33:02;100619.53;;;0.41;86.70
23473;BME280;11909;52.516;13.564;2023-03-12T07:35:30;100628.66;;;0.47;86.63
23473;BME280;11909;52.516;13.564;2023-03-12T07:37:59;100629.44;;;0.54;86.47
23473;BME280;11909;52.516;13.564;2023-03-12T07:40:27;100632.38;;;0.53;86.71
23473;BME280;11909;52.516;13.564;2023-03-12T07:42:56;100631.09;;;0.55;86.44
23473;BME280;11909;52.516;13.564;2023-03-12T07:45:24;100634.63;;;0.56;86.63
23473;BME280;11909;52.516;13.564;2023-03-12T07:47:51;100631.22;;;0.67;85.64
23473;BME280;11909;52.516;13.564;2023-03-12T07:50:20;100637.06;;;0.64;85.56
23473;BME280;11909;52.516;13.564;2023-03-12T07:52:48;100637.91;;;0.65;85.43
23473;BME280;11909;52.516;13.564;2023-03-12T07:55:17;100635.66;;;0.62;85.74
23473;BME280;11909;52.516;13.564;2023-03-12T07:57:45;100637.59;;;0.80;86.16
23473;BME280;11909;52.516;13.564;2023-03-12T08:00:13;100647.94;;;0.90;84.51
23473;BME280;11909;52.516;13.564;2023-03-12T08:02:42;100651.94;;;0.80;85.24
23473;BME280;11909;52.516;13.564;2023-03-12T08:05:11;100655.16;;;0.96;83.53
23473;BME280;11909;52.516;13.564;2023-03-12T08:07:40;100647.22;;;1.01;83.98
23473;BME280;11909;52.516;13.564;2023-03-12T08:10:09;100657.66;;;1.23;82.96
23473;BME280;11909;52.516;13.564;2023-03-12T08:12:37;100660.72;;;1.33;81.27
23473;BME280;11909;52.516;13.564;2023-03-12T08:15:06;100654.63;;;1.38;80.77
23473;BME280;11909;52.516;13.564;2023-03-12T08:17:34;100659.00;;;1.39;81.21
23473;BME280;11909;52.516;13.564;2023-03-12T08:20:03;100659.16;;;1.44;80.22
23473;BME280;11909;52.516;13.564;2023-03-12T08:22:31;100660.44;;;1.41;79.86
23473;BME280;11909;52.516;13.564;2023-03-12T08:25:00;100662.63;;;1.51;80.29
23473;BME280;11909;52.516;13.564;2023-03-12T08:27:28;100666.53;;;1.55;79.10
23473;BME280;11909;52.516;13.564;2023-03-12T08:29:55;100667.31;;;1.63;78.73
23473;BME280;11909;52.516;13.564;2023-03-12T08:32:23;100659.13;;;1.51;79.58
23473;BME280;11909;52.516;13.564;2023-03-12T08:34:51;100669.69;;;1.52;80.01
23473;BME280;11909;52.516;13.564;2023-03-12T08:37:19;100667.38;;;1.56;80.14
23473;BME280;11909;52.516;13.564;2023-03-12T08:39:47;100674.19;;;1.84;78.20
23473;BME280;11909;52.516;13.564;2023-03-12T08:42:17;100671.69;;;1.82;77.43
23473;BME280;11909;52.516;13.564;2023-03-12T08:44:44;100677.13;;;2.01;77.21
23473;BME280;11909;52.516;13.564;2023-03-12T08:47:12;100676.78;;;1.97;77.53
23473;BME280;11909;52.516;13.564;2023-03-12T08:49:40;100677.28;;;2.06;76.78
23473;BME280;11909;52.516;13.564;2023-03-12T08:52:07;100677.72;;;2.22;74.85
23473;BME280;11909;52.516;13.564;2023-03-12T08:54:35;100677.59;;;2.35;74.21
23473;BME280;11909;52.516;13.564;2023-03-12T08:57:03;100676.09;;;2.21;74.72
23473;BME280;11909;52.516;13.564;2023-03-12T08:59:32;100676.00;;;2.27;74.44
23473;BME280;11909;52.516;13.564;2023-03-12T09:02:00;100672.53;;;2.39;73.19
23473;BME280;11909;52.516;13.564;2023-03-12T09:04:27;100674.72;;;2.30;73.89
23473;BME280;11909;52.516;13.564;2023-03-12T09:06:55;100682.53;;;2.38;73.25
23473;BME280;11909;52.516;13.564;2023-03-12T09:09:23;100668.53;;;2.41;74.34
23473;BME280;11909;52.516;13.564;2023-03-12T09:11:50;100680.50;;;2.52;72.89
23473;BME280;11909;52.516;13.564;2023-03-12T09:14:18;100679.50;;;2.65;73.02
23473;BME280;11909;52.516;13.564;2023-03-12T09:17:07;100674.84;;;2.84;71.51
23473;BME280;11909;52.516;13.564;2023-03-12T09:19:35;100686.34;;;3.10;69.16
23473;BME280;11909;52.516;13.564;2023-03-12T09:22:02;100676.00;;;3.31;68.99
23473;BME280;11909;52.516;13.564;2023-03-12T09:24:30;100680.53;;;3.37;67.63
23473;BME280;11909;52.516;13.564;2023-03-12T09:26:58;100674.97;;;3.56;69.38
23473;BME280;11909;52.516;13.564;2023-03-12T09:29:26;100685.84;;;3.68;66.10
23473;BME280;11909;52.516;13.564;2023-03-12T09:34:27;100681.63;;;3.72;66.42
23473;BME280;11909;52.516;13.564;2023-03-12T09:36:54;100679.97;;;3.83;66.06
23473;BME280;11909;52.516;13.564;2023-03-12T09:39:22;100685.84;;;3.80;65.91
23473;BME280;11909;52.516;13.564;2023-03-12T09:41:50;100680.41;;;3.80;67.58
23473;BME280;11909;52.516;13.564;2023-03-12T09:44:21;100686.28;;;4.00;65.51
23473;BME280;11909;52.516;13.564;2023-03-12T09:46:56;100683.59;;;3.88;65.26
23473;BME280;11909;52.516;13.564;2023-03-12T09:49:32;100679.97;;;3.83;65.93
23473;BME280;11909;52.516;13.564;2023-03-12T09:52:05;100679.38;;;3.81;65.69
23473;BME280;11909;52.516;13.564;2023-03-12T09:54:39;100677.56;;;3.86;66.15
23473;BME280;11909;52.516;13.564;2023-03-12T09:57:16;100678.53;;;3.92;65.13
23473;BME280;11909;52.516;13.564;2023-03-12T09:59:46;100687.84;;;3.96;64.29
23473;BME280;11909;52.516;13.564;2023-03-12T10:02:33;100675.34;;;3.95;64.47
23473;BME280;11909;52.516;13.564;2023-03-12T10:05:12;100661.38;;;4.04;65.01
23473;BME280;11909;52.516;13.564;2023-03-12T10:07:47;100656.78;;;4.04;65.72
23473;BME280;11909;52.516;13.564;2023-03-12T10:10:24;100651.38;;;3.92;65.58
23473;BME280;11909;52.516;13.564;2023-03-12T10:13:07;100658.22;;;4.07;64.64
23473;BME280;11909;52.516;13.564;2023-03-12T10:15:47;100658.91;;;4.02;64.48
23473;BME280;11909;52.516;13.564;2023-03-12T10:18:26;100660.44;;;4.10;65.08
23473;BME280;11909;52.516;13.564;2023-03-12T10:21:12;100656.88;;;4.09;63.99
23473;BME280;11909;52.516;13.564;2023-03-12T10:23:55;100652.84;;;4.24;63.74
23473;BME280;11909;52.516;13.564;2023-03-12T10:26:30;100642.91;;;4.29;63.11
23473;BME280;11909;52.516;13.564;2023-03-12T10:29:01;100653.81;;;4.18;63.30
23473;BME280;11909;52.516;13.564;2023-03-12T10:31:33;100651.31;;;4.28;63.59
23473;BME280;11909;52.516;13.564;2023-03-12T10:34:11;100643.59;;;4.37;63.24
23473;BME280;11909;52.516;13.564;2023-03-12T10:36:41;100629.03;;;4.43;64.41
23473;BME280;11909;52.516;13.564;2023-03-12T10:39:13;100627.66;;;4.40;64.43
23473;BME280;11909;52.516;13.564;2023-03-12T10:41:42;100633.50;;;4.49;62.47
23473;BME280;11909;52.516;13.564;2023-03-12T10:44:16;100618.91;;;4.67;62.55
23473;BME280;11909;52.516;13.564;2023-03-12T10:46:51;100640.56;;;4.62;60.97
23473;BME280;11909;52.516;13.564;2023-03-12T10:49:26;100638.66;;;4.63;61.29
23473;BME280;11909;52.516;13.564;2023-03-12T10:51:58;100633.50;;;4.78;61.18
23473;BME280;11909;52.516;13.564;2023-03-12T10:54:29;100626.09;;;4.91;61.49
23473;BME280;11909;52.516;13.564;2023-03-12T10:56:58;100613.91;;;4.76;62.17
23473;BME280;11909;52.516;13.564;2023-03-12T10:59:28;100614.34;;;5.02;62.09
23473;BME280;11909;52.516;13.564;2023-03-12T11:01:57;100623.00;;;5.16;58.94
23473;BME280;11909;52.516;13.564;2023-03-12T11:04:26;100621.41;;;5.20;58.67
23473;BME280;11909;52.516;13.564;2023-03-12T11:07:23;100617.59;;;5.38;57.86
23473;BME280;11909;52.516;13.564;2023-03-12T11:10:12;100612.28;;;5.43;57.51
23473;BME280;11909;52.516;13.564;2023-03-12T11:12:50;100612.47;;;5.59;57.00
23473;BME280;11909;52.516;13.564;2023-03-12T11:15:21;100609.28;;;5.45;56.76
23473;BME280;11909;52.516;13.564;2023-03-12T11:17:50;100597.81;;;5.43;56.73
23473;BME280;11909;52.516;13.564;2023-03-12T11:20:25;100604.00;;;5.38;56.47
23473;BME280;11909;52.516;13.564;2023-03-12T11:22:54;100597.19;;;5.36;56.85
23473;BME280;11909;52.516;13.564;2023-03-12T11:25:25;100610.22;;;5.34;54.97
23473;BME280;11909;52.516;13.564;2023-03-12T11:27:54;100613.41;;;5.48;54.32
23473;BME280;11909;52.516;13.564;2023-03-12T11:30:28;100606.72;;;5.38;52.30
23473;BME280;11909;52.516;13.564;2023-03-12T11:33:00;100601.44;;;5.49;52.67
23473;BME280;11909;52.516;13.564;2023-03-12T11:35:38;100590.00;;;5.47;53.59
23473;BME280;11909;52.516;13.564;2023-03-12T11:38:16;100594.06;;;5.66;53.86
23473;BME280;11909;52.516;13.564;2023-03-12T11:40:59;100593.59;;;5.52;54.02
23473;BME280;11909;52.516;13.564;2023-03-12T11:43:41;100597.00;;;5.42;53.16
23473;BME280;11909;52.516;13.564;2023-03-12T11:46:22;100581.81;;;5.47;53.92
23473;BME280;11909;52.516;13.564;2023-03-12T11:49:01;100578.44;;;5.56;51.25
23473;BME280;11909;52.516;13.564;2023-03-12T11:51:42;100581.81;;;5.47;51.62
23473;BME280;11909;52.516;13.564;2023-03-12T11:54:35;100582.97;;;5.51;53.46
23473;BME280;11909;52.516;13.564;2023-03-12T11:57:12;100574.88;;;5.56;53.24
23473;BME280;11909;52.516;13.564;2023-03-12T11:59:57;100565.16;;;5.43;53.42
23473;BME280;11909;52.516;13.564;2023-03-12T12:02:49;100556.09;;;5.37;54.03
23473;BME280;11909;52.516;13.564;2023-03-12T12:05:32;100559.66;;;5.38;55.69
23473;BME280;11909;52.516;13.564;2023-03-12T12:08:17;100557.22;;;5.41;54.98
23473;BME280;11909;52.516;13.564;2023-03-12T12:10:58;100561.63;;;5.42;52.23
23473;BME280;11909;52.516;13.564;2023-03-12T12:13:37;100556.66;;;5.39;53.17
23473;BME280;11909;52.516;13.564;2023-03-12T12:16:20;100545.53;;;5.41;52.57
23473;BME280;11909;52.516;13.564;2023-03-12T12:18:59;100542.56;;;5.42;51.63
23473;BME280;11909;52.516;13.564;2023-03-12T12:21:35;100534.53;;;5.30;51.92
23473;BME280;11909;52.516;13.564;2023-03-12T12:24:15;100528.38;;;5.40;51.67
23473;BME280;11909;52.516;13.564;2023-03-12T12:26:55;100543.88;;;5.40;51.29
23473;BME280;11909;52.516;13.564;2023-03-12T12:29:47;100537.59;;;5.39;51.32
23473;BME280;11909;52.516;13.564;2023-03-12T12:32:21;100530.28;;;5.40;50.21
23473;BME280;11909;52.516;13.564;2023-03-12T12:35:10;100512.53;;;5.37;49.82
23473;BME280;11909;52.516;13.564;2023-03-12T12:37:47;100489.06;;;5.31;49.08
23473;BME280;11909;52.516;13.564;2023-03-12T12:40:20;100492.13;;;5.35;49.07
23473;BME280;11909;52.516;13.564;2023-03-12T12:43:00;100490.22;;;5.35;50.73
23473;BME280;11909;52.516;13.564;2023-03-12T12:45:30;100497.97;;;5.43;47.24
23473;BME280;11909;52.516;13.564;2023-03-12T12:48:01;100488.91;;;5.38;48.10
23473;BME280;11909;52.516;13.564;2023-03-12T12:50:32;100483.69;;;5.36;48.94
23473;BME280;11909;52.516;13.564;2023-03-12T12:53:18;100490.28;;;5.63;47.21
23473;BME280;11909;52.516;13.564;2023-03-12T12:55:54;100487.19;;;5.54;46.43
23473;BME280;11909;52.516;13.564;2023-03-12T12:58:41;100478.13;;;5.48;47.31
23473;BME280;11909;52.516;13.564;2023-03-12T13:01:12;100477.19;;;5.59;46.88
23473;BME280;11909;52.516;13.564;2023-03-12T13:03:42;100472.63;;;5.65;45.90
23473;BME280;11909;52.516;13.564;2023-03-12T13:06:11;100482.06;;;5.57;46.07
23473;BME280;11909;52.516;13.564;2023-03-12T13:08:59;100484.13;;;5.50;45.36
23473;BME280;11909;52.516;13.564;2023-03-12T13:11:29;100484.34;;;5.66;43.88